createdAt,value
2017-12-21T00:00:24.780Z,1008.83
2017-12-21T00:01:24.779Z,1008.83
2017-12-21T00:02:24.766Z,1008.87
2017-12-21T00:03:24.764Z,1008.89
2017-12-21T00:04:24.751Z,1008.88
2017-12-21T00:05:24.784Z,1008.88
2017-12-21T00:06:24.738Z,1008.85
2017-12-21T00:07:24.732Z,1008.83
2017-12-21T00:08:24.723Z,1008.79
2017-12-21T00:09:24.716Z,1008.76
2017-12-21T00:10:24.713Z,1008.7
2017-12-21T00:11:24.710Z,1008.7
2017-12-21T00:12:24.702Z,1008.71
2017-12-21T00:13:24.689Z,1008.74
2017-12-21T00:14:24.682Z,1008.78
2017-12-21T00:15:24.674Z,1008.79
2017-12-21T00:16:24.672Z,1008.81
2017-12-21T00:17:24.661Z,1008.78
2017-12-21T00:18:24.654Z,1008.8
2017-12-21T00:19:24.661Z,1008.85
2017-12-21T00:20:24.640Z,1008.87
2017-12-21T00:21:24.634Z,1008.89
2017-12-21T00:22:24.627Z,1008.94
2017-12-21T00:23:24.619Z,1008.94
2017-12-21T00:24:24.616Z,1008.95
2017-12-21T00:25:24.663Z,1008.88
2017-12-21T00:26:24.600Z,1008.89
2017-12-21T00:27:24.598Z,1008.89
2017-12-21T00:28:24.584Z,1008.91
2017-12-21T00:29:24.578Z,1008.91
2017-12-21T00:30:24.570Z,1008.95
2017-12-21T00:31:24.563Z,1009
2017-12-21T00:32:24.557Z,1009
2017-12-21T00:33:24.549Z,1009.07
2017-12-21T00:34:24.548Z,1009.06
2017-12-21T00:35:24.535Z,1009.09
2017-12-21T00:36:24.531Z,1009.09
2017-12-21T00:37:24.521Z,1009.09
2017-12-21T00:38:24.514Z,1009.14
2017-12-21T00:39:24.507Z,1009.11
2017-12-21T00:40:24.501Z,1009.05
2017-12-21T00:41:24.511Z,1009.06
2017-12-21T00:42:24.520Z,1009.05
2017-12-21T00:43:24.479Z,1009.07
2017-12-21T00:44:24.473Z,1009.07
2017-12-21T00:45:24.465Z,1009.08
2017-12-21T00:46:24.458Z,1009.09
2017-12-21T00:47:24.753Z,1009.11
2017-12-21T00:48:24.445Z,1009.12
2017-12-21T00:49:24.446Z,1009.12
2017-12-21T00:50:24.430Z,1009.12
2017-12-21T00:51:24.431Z,1009.08
2017-12-21T00:52:24.416Z,1009.08
2017-12-21T00:53:24.411Z,1009.08
2017-12-21T00:54:24.406Z,1009.11
2017-12-21T00:55:24.399Z,1009.11
2017-12-21T00:56:24.391Z,1009.1
2017-12-21T00:57:24.390Z,1009.11
2017-12-21T00:58:24.380Z,1009.11
2017-12-21T00:59:24.370Z,1009.05
2017-12-21T01:00:24.363Z,1009.04
2017-12-21T01:01:24.356Z,1009.08
2017-12-21T01:02:25.951Z,1009.09
2017-12-21T01:03:24.343Z,1009.08
2017-12-21T01:04:24.336Z,1009.09
2017-12-21T01:05:24.329Z,1009.09
2017-12-21T01:06:24.324Z,1009.11
2017-12-21T01:07:24.315Z,1009.13
2017-12-21T01:08:24.309Z,1009.1
2017-12-21T01:09:24.303Z,1009.13
2017-12-21T01:10:24.298Z,1009.11
2017-12-21T01:11:24.289Z,1009.12
2017-12-21T01:12:24.282Z,1009.13
2017-12-21T01:13:24.274Z,1009.14
2017-12-21T01:14:24.268Z,1009.16
2017-12-21T01:15:24.264Z,1009.19
2017-12-21T01:16:24.255Z,1009.18
2017-12-21T01:17:24.245Z,1009.2
2017-12-21T01:18:24.243Z,1009.18
2017-12-21T01:19:24.233Z,1009.21
2017-12-21T01:20:24.226Z,1009.22
2017-12-21T01:21:24.219Z,1009.2
2017-12-21T01:22:24.214Z,1009.22
2017-12-21T01:23:24.205Z,1009.24
2017-12-21T01:24:24.201Z,1009.28
2017-12-21T01:25:24.191Z,1009.24
2017-12-21T01:26:24.183Z,1009.21
2017-12-21T01:27:24.176Z,1009.13
2017-12-21T01:28:24.169Z,1009.12
2017-12-21T01:29:24.161Z,1009.07
2017-12-21T01:30:24.155Z,1009.09
2017-12-21T01:31:24.149Z,1009.05
2017-12-21T01:32:24.140Z,1009.08
2017-12-21T01:33:24.133Z,1009.08
2017-12-21T01:34:24.125Z,1009.11
2017-12-21T01:35:24.169Z,1009.12
2017-12-21T01:36:24.110Z,1009.13
2017-12-21T01:37:24.103Z,1009.05
2017-12-21T01:38:24.096Z,1009.02
2017-12-21T01:39:24.088Z,1008.98
2017-12-21T01:40:24.082Z,1008.96
2017-12-21T01:41:24.074Z,1008.9
2017-12-21T01:42:24.067Z,1008.91
2017-12-21T01:43:24.062Z,1008.93
2017-12-21T01:44:24.053Z,1008.95
2017-12-21T01:45:24.051Z,1008.98
2017-12-21T01:46:24.039Z,1009.05
2017-12-21T01:47:24.031Z,1009.1
2017-12-21T01:48:24.022Z,1009.03
2017-12-21T01:49:24.014Z,1008.98
2017-12-21T01:50:24.008Z,1008.99
2017-12-21T01:51:24.006Z,1008.95
2017-12-21T01:52:23.993Z,1008.95
2017-12-21T01:53:23.986Z,1008.9
2017-12-21T01:54:23.977Z,1008.91
2017-12-21T01:55:23.971Z,1008.86
2017-12-21T01:56:23.964Z,1008.84
2017-12-21T01:57:23.957Z,1008.78
2017-12-21T01:58:23.954Z,1008.79
2017-12-21T01:59:23.949Z,1008.82
2017-12-21T02:00:23.934Z,1008.84
2017-12-21T02:01:23.926Z,1008.82
2017-12-21T02:02:23.919Z,1008.81
2017-12-21T02:03:23.912Z,1008.8
2017-12-21T02:04:23.907Z,1008.83
2017-12-21T02:05:23.908Z,1008.79
2017-12-21T02:06:23.891Z,1008.81
2017-12-21T02:07:23.888Z,1008.82
2017-12-21T02:08:23.875Z,1008.84
2017-12-21T02:09:23.868Z,1008.85
2017-12-21T02:10:23.860Z,1008.84
2017-12-21T02:11:23.855Z,1008.91
2017-12-21T02:12:23.851Z,1008.92
2017-12-21T02:13:23.859Z,1008.92
2017-12-21T02:14:23.854Z,1008.96
2017-12-21T02:15:23.836Z,1008.97
2017-12-21T02:16:23.817Z,1009.02
2017-12-21T02:17:23.813Z,1008.99
2017-12-21T02:18:23.804Z,1009
2017-12-21T02:19:23.802Z,1009.04
2017-12-21T02:20:23.808Z,1009.07
2017-12-21T02:21:23.785Z,1009.11
2017-12-21T02:22:23.785Z,1009.14
2017-12-21T02:23:23.780Z,1009.11
2017-12-21T02:24:23.762Z,1009.17
2017-12-21T02:25:23.762Z,1009.12
2017-12-21T02:26:23.756Z,1009.08
2017-12-21T02:27:23.735Z,1009.12
2017-12-21T02:28:23.728Z,1009.09
2017-12-21T02:29:23.720Z,1009.12
2017-12-21T02:30:23.713Z,1009.09
2017-12-21T02:31:23.705Z,1009.16
2017-12-21T02:32:23.700Z,1009.13
2017-12-21T02:33:23.692Z,1009.15
2017-12-21T02:34:23.683Z,1009.1
2017-12-21T02:35:23.678Z,1009.13
2017-12-21T02:36:23.676Z,1009.07
2017-12-21T02:37:23.664Z,1009.05
2017-12-21T02:38:23.656Z,1009.1
2017-12-21T02:39:23.648Z,1009.1
2017-12-21T02:40:23.642Z,1009.07
2017-12-21T02:41:23.632Z,1009.12
2017-12-21T02:42:23.627Z,1009.17
2017-12-21T02:43:23.625Z,1009.2
2017-12-21T02:44:23.614Z,1009.21
2017-12-21T02:45:23.605Z,1009.26
2017-12-21T02:46:23.598Z,1009.19
2017-12-21T02:47:23.592Z,1009.18
2017-12-21T02:48:23.584Z,1009.18
2017-12-21T02:49:23.577Z,1009.15
2017-12-21T02:50:23.575Z,1009.11
2017-12-21T02:51:23.568Z,1009.13
2017-12-21T02:52:23.556Z,1009.17
2017-12-21T02:53:23.556Z,1009.15
2017-12-21T02:54:23.544Z,1009.14
2017-12-21T02:55:23.536Z,1009.1
2017-12-21T02:56:23.528Z,1009.08
2017-12-21T02:57:23.522Z,1009.06
2017-12-21T02:58:23.517Z,1009.01
2017-12-21T02:59:23.508Z,1008.98
2017-12-21T03:00:23.500Z,1008.95
2017-12-21T03:01:23.497Z,1008.96
2017-12-21T03:02:23.489Z,1008.95
2017-12-21T03:03:25.334Z,1009
2017-12-21T03:04:23.473Z,1009.02
2017-12-21T03:05:23.467Z,1009.03
2017-12-21T03:06:23.461Z,1009.03
2017-12-21T03:07:23.458Z,1009.01
2017-12-21T03:08:23.458Z,1008.98
2017-12-21T03:09:23.437Z,1009.04
2017-12-21T03:10:23.431Z,1008.99
2017-12-21T03:11:23.423Z,1009.03
2017-12-21T03:12:23.416Z,1008.95
2017-12-21T03:13:23.413Z,1008.93
2017-12-21T03:14:23.411Z,1008.89
2017-12-21T03:15:23.409Z,1008.86
2017-12-21T03:16:23.403Z,1008.84
2017-12-21T03:17:23.381Z,1008.85
2017-12-21T03:18:23.375Z,1008.86
2017-12-21T03:19:23.367Z,1008.88
2017-12-21T03:20:23.362Z,1008.93
2017-12-21T03:21:23.360Z,1008.98
2017-12-21T03:22:23.349Z,1009
2017-12-21T03:23:23.340Z,1008.95
2017-12-21T03:24:23.332Z,1008.95
2017-12-21T03:25:23.324Z,1008.95
2017-12-21T03:26:23.317Z,1008.96
2017-12-21T03:27:23.310Z,1008.93
2017-12-21T03:28:23.307Z,1008.93
2017-12-21T03:29:23.296Z,1008.91
2017-12-21T03:30:23.298Z,1008.87
2017-12-21T03:31:23.286Z,1008.92
2017-12-21T03:32:23.275Z,1008.91
2017-12-21T03:33:23.268Z,1008.91
2017-12-21T03:34:23.261Z,1008.91
2017-12-21T03:35:23.256Z,1008.9
2017-12-21T03:36:23.247Z,1008.91
2017-12-21T03:37:23.240Z,1008.94
2017-12-21T03:38:23.234Z,1008.91
2017-12-21T03:39:23.228Z,1008.9
2017-12-21T03:40:23.223Z,1008.91
2017-12-21T03:41:23.212Z,1008.89
2017-12-21T03:42:23.204Z,1008.84
2017-12-21T03:43:23.198Z,1008.86
2017-12-21T03:44:23.190Z,1008.83
2017-12-21T03:45:23.183Z,1008.84
2017-12-21T03:46:23.177Z,1008.84
2017-12-21T03:47:23.173Z,1008.83
2017-12-21T03:48:23.162Z,1008.83
2017-12-21T03:49:23.155Z,1008.87
2017-12-21T03:50:23.149Z,1008.87
2017-12-21T03:51:23.142Z,1008.89
2017-12-21T03:52:23.134Z,1008.93
2017-12-21T03:53:23.127Z,1008.95
2017-12-21T03:54:23.121Z,1008.94
2017-12-21T03:55:23.113Z,1008.96
2017-12-21T03:56:23.105Z,1008.96
2017-12-21T03:57:23.103Z,1008.99
2017-12-21T03:58:23.091Z,1008.98
2017-12-21T03:59:23.086Z,1008.97
2017-12-21T04:00:23.077Z,1009
2017-12-21T04:01:23.078Z,1009.01
2017-12-21T04:02:23.063Z,1009.01
2017-12-21T04:03:23.063Z,1008.99
2017-12-21T04:04:23.050Z,1009
2017-12-21T04:05:23.043Z,1008.95
2017-12-21T04:06:23.040Z,1009
2017-12-21T04:07:23.032Z,1008.93
2017-12-21T04:08:23.023Z,1008.88
2017-12-21T04:09:23.025Z,1008.86
2017-12-21T04:10:23.008Z,1008.91
2017-12-21T04:11:23.000Z,1008.86
2017-12-21T04:12:22.995Z,1008.83
2017-12-21T04:13:22.987Z,1008.79
2017-12-21T04:14:22.981Z,1008.8
2017-12-21T04:15:22.973Z,1008.77
2017-12-21T04:16:22.966Z,1008.73
2017-12-21T04:17:22.958Z,1008.78
2017-12-21T04:18:22.952Z,1008.78
2017-12-21T04:19:22.945Z,1008.74
2017-12-21T04:20:22.937Z,1008.78
2017-12-21T04:21:22.931Z,1008.8
2017-12-21T04:22:22.923Z,1008.83
2017-12-21T04:23:22.925Z,1008.87
2017-12-21T04:24:22.908Z,1008.89
2017-12-21T04:25:22.901Z,1008.91
2017-12-21T04:26:22.894Z,1008.89
2017-12-21T04:27:22.894Z,1008.9
2017-12-21T04:28:22.881Z,1008.93
2017-12-21T04:29:22.876Z,1008.91
2017-12-21T04:30:22.874Z,1008.9
2017-12-21T04:31:22.857Z,1008.88
2017-12-21T04:32:22.850Z,1008.87
2017-12-21T04:33:22.844Z,1008.84
2017-12-21T04:34:24.665Z,1008.82
2017-12-21T04:35:22.831Z,1008.83
2017-12-21T04:36:22.822Z,1008.78
2017-12-21T04:37:22.824Z,1008.84
2017-12-21T04:38:22.824Z,1008.87
2017-12-21T04:39:22.813Z,1008.91
2017-12-21T04:40:22.794Z,1008.98
2017-12-21T04:41:22.787Z,1009.02
2017-12-21T04:42:22.779Z,1009.11
2017-12-21T04:43:22.772Z,1009.09
2017-12-21T04:44:22.765Z,1009.21
2017-12-21T04:45:22.761Z,1009.2
2017-12-21T04:46:22.760Z,1009.18
2017-12-21T04:47:22.757Z,1009.2
2017-12-21T04:48:22.739Z,1009.16
2017-12-21T04:49:22.729Z,1009.16
2017-12-21T04:50:22.722Z,1009.12
2017-12-21T04:51:22.716Z,1009.1
2017-12-21T04:52:22.709Z,1009.07
2017-12-21T04:53:22.702Z,1009.04
2017-12-21T04:54:22.696Z,1009.01
2017-12-21T04:55:22.687Z,1009.02
2017-12-21T04:56:22.683Z,1009.04
2017-12-21T04:57:22.673Z,1009.05
2017-12-21T04:58:22.667Z,1009.07
2017-12-21T04:59:22.659Z,1009.08
2017-12-21T05:00:22.651Z,1009.11
2017-12-21T05:01:22.648Z,1009.14
2017-12-21T05:02:22.640Z,1009.07
2017-12-21T05:03:22.633Z,1009.11
2017-12-21T05:04:22.622Z,1009.09
2017-12-21T05:05:22.615Z,1009.12
2017-12-21T05:06:22.607Z,1009.14
2017-12-21T05:07:22.600Z,1009.1
2017-12-21T05:08:22.593Z,1009.12
2017-12-21T05:09:22.585Z,1009.15
2017-12-21T05:10:22.578Z,1009.14
2017-12-21T05:11:22.570Z,1009.2
2017-12-21T05:12:22.566Z,1009.15
2017-12-21T05:13:22.556Z,1009.18
2017-12-21T05:14:22.556Z,1009.17
2017-12-21T05:15:22.541Z,1009.13
2017-12-21T05:16:22.533Z,1009.13
2017-12-21T05:17:22.526Z,1009.17
2017-12-21T05:18:22.519Z,1009.13
2017-12-21T05:19:22.510Z,1009.18
2017-12-21T05:20:22.504Z,1009.14
2017-12-21T05:21:22.498Z,1009.13
2017-12-21T05:22:22.490Z,1009.08
2017-12-21T05:23:22.482Z,1009.1
2017-12-21T05:24:22.475Z,1009.11
2017-12-21T05:25:22.468Z,1009.1
2017-12-21T05:26:22.460Z,1009.11
2017-12-21T05:27:22.453Z,1009.09
2017-12-21T05:28:22.454Z,1009.06
2017-12-21T05:29:22.440Z,1009.08
2017-12-21T05:30:22.432Z,1009.12
2017-12-21T05:31:22.427Z,1009.08
2017-12-21T05:32:22.417Z,1009.07
2017-12-21T05:33:22.411Z,1009.03
2017-12-21T05:34:22.404Z,1009.02
2017-12-21T05:35:22.401Z,1009.06
2017-12-21T05:36:22.398Z,1009.01
2017-12-21T05:37:22.383Z,1009.05
2017-12-21T05:38:22.385Z,1009.01
2017-12-21T05:39:22.368Z,1009.05
2017-12-21T05:40:22.361Z,1009.02
2017-12-21T05:41:22.354Z,1009.04
2017-12-21T05:42:22.347Z,1009.03
2017-12-21T05:43:22.342Z,1009.01
2017-12-21T05:44:22.340Z,1009.02
2017-12-21T05:45:22.328Z,1009.01
2017-12-21T05:46:22.318Z,1008.99
2017-12-21T05:47:22.311Z,1009.02
2017-12-21T05:48:22.303Z,1008.97
2017-12-21T05:49:22.296Z,1008.97
2017-12-21T05:50:22.296Z,1008.94
2017-12-21T05:51:22.284Z,1008.95
2017-12-21T05:52:22.280Z,1008.96
2017-12-21T05:53:22.272Z,1008.9
2017-12-21T05:54:22.263Z,1008.91
2017-12-21T05:55:22.255Z,1008.95
2017-12-21T05:56:22.253Z,1008.92
2017-12-21T05:57:22.244Z,1008.94
2017-12-21T05:58:22.234Z,1008.97
2017-12-21T05:59:22.226Z,1008.95
2017-12-21T06:00:22.225Z,1008.96
2017-12-21T06:01:22.217Z,1008.96
2017-12-21T06:02:22.207Z,1008.98
2017-12-21T06:03:22.199Z,1009.01
2017-12-21T06:04:22.199Z,1009.02
2017-12-21T06:05:25.538Z,1008.99
2017-12-21T06:06:22.179Z,1009.04
2017-12-21T06:07:22.170Z,1009.08
2017-12-21T06:08:22.163Z,1009.08
2017-12-21T06:09:22.156Z,1009.06
2017-12-21T06:10:22.149Z,1009.05
2017-12-21T06:11:22.141Z,1009.09
2017-12-21T06:12:22.144Z,1009.07
2017-12-21T06:13:22.132Z,1009.07
2017-12-21T06:14:22.120Z,1009.11
2017-12-21T06:15:22.114Z,1009.11
2017-12-21T06:16:22.107Z,1009.12
2017-12-21T06:17:22.100Z,1009.14
2017-12-21T06:18:22.092Z,1009.12
2017-12-21T06:19:22.089Z,1009.18
2017-12-21T06:20:22.088Z,1009.12
2017-12-21T06:21:22.071Z,1009.16
2017-12-21T06:22:22.063Z,1009.18
2017-12-21T06:23:22.063Z,1009.14
2017-12-21T06:24:22.050Z,1009.15
2017-12-21T06:25:22.042Z,1009.15
2017-12-21T06:26:22.048Z,1009.12
2017-12-21T06:27:22.034Z,1009.15
2017-12-21T06:28:22.036Z,1009.12
2017-12-21T06:29:22.045Z,1009.12
2017-12-21T06:30:22.035Z,1009.08
2017-12-21T06:31:22.003Z,1009.1
2017-12-21T06:32:22.014Z,1009.06
2017-12-21T06:33:21.994Z,1009.1
2017-12-21T06:34:21.994Z,1009.05
2017-12-21T06:35:22.000Z,1009.11
2017-12-21T06:36:21.973Z,1009.09
2017-12-21T06:37:21.978Z,1009.13
2017-12-21T06:38:21.966Z,1009.14
2017-12-21T06:39:21.956Z,1009.12
2017-12-21T06:40:21.950Z,1009.1
2017-12-21T06:41:21.950Z,1009.13
2017-12-21T06:42:21.935Z,1009.12
2017-12-21T06:43:21.944Z,1009.14
2017-12-21T06:44:21.914Z,1009.11
2017-12-21T06:45:21.915Z,1009.16
2017-12-21T06:46:21.915Z,1009.16
2017-12-21T06:47:21.909Z,1009.13
2017-12-21T06:48:21.909Z,1009.15
2017-12-21T06:49:21.906Z,1009.15
2017-12-21T06:50:21.893Z,1009.15
2017-12-21T06:51:21.873Z,1009.14
2017-12-21T06:52:21.879Z,1009.13
2017-12-21T06:53:21.874Z,1009.11
2017-12-21T06:54:21.858Z,1009.06
2017-12-21T06:55:21.848Z,1009.09
2017-12-21T06:56:21.847Z,1009.04
2017-12-21T06:57:21.829Z,1008.99
2017-12-21T06:58:21.838Z,1009.06
2017-12-21T06:59:21.810Z,1009
2017-12-21T07:00:21.812Z,1008.97
2017-12-21T07:01:21.797Z,1008.93
2017-12-21T07:02:21.798Z,1008.92
2017-12-21T07:03:21.786Z,1008.9
2017-12-21T07:04:21.790Z,1008.93
2017-12-21T07:05:21.770Z,1008.94
2017-12-21T07:06:21.772Z,1008.95
2017-12-21T07:07:21.772Z,1009
2017-12-21T07:08:21.748Z,1009.02
2017-12-21T07:09:21.736Z,1009.03
2017-12-21T07:10:21.741Z,1009.12
2017-12-21T07:11:21.719Z,1009.15
2017-12-21T07:12:21.723Z,1009.18
2017-12-21T07:13:21.719Z,1009.16
2017-12-21T07:14:21.714Z,1009.18
2017-12-21T07:15:21.702Z,1009.22
2017-12-21T07:16:21.690Z,1009.21
2017-12-21T07:17:21.683Z,1009.18
2017-12-21T07:18:21.685Z,1009.13
2017-12-21T07:19:21.670Z,1009.08
2017-12-21T07:20:21.652Z,1009.1
2017-12-21T07:21:21.646Z,1009.11
2017-12-21T07:22:21.638Z,1009.09
2017-12-21T07:23:21.631Z,1009.06
2017-12-21T07:24:21.626Z,1009.11
2017-12-21T07:25:21.617Z,1009.08
2017-12-21T07:26:21.609Z,1009.1
2017-12-21T07:27:21.603Z,1009.06
2017-12-21T07:28:21.598Z,1009.08
2017-12-21T07:29:21.589Z,1009.07
2017-12-21T07:30:21.584Z,1009.11
2017-12-21T07:31:21.580Z,1009.12
2017-12-21T07:32:21.567Z,1009.08
2017-12-21T07:33:21.560Z,1009.09
2017-12-21T07:34:21.554Z,1009.08
2017-12-21T07:35:21.546Z,1009.05
2017-12-21T07:36:23.642Z,1009.07
2017-12-21T07:37:21.533Z,1009.09
2017-12-21T07:38:21.525Z,1009.12
2017-12-21T07:39:21.518Z,1009.1
2017-12-21T07:40:21.512Z,1009.08
2017-12-21T07:41:21.504Z,1009.09
2017-12-21T07:42:21.499Z,1009.12
2017-12-21T07:43:21.491Z,1009.14
2017-12-21T07:44:21.494Z,1009.15
2017-12-21T07:45:21.476Z,1009.15
2017-12-21T07:46:21.473Z,1009.18
2017-12-21T07:47:21.464Z,1009.21
2017-12-21T07:48:21.456Z,1009.21
2017-12-21T07:49:21.448Z,1009.19
2017-12-21T07:50:21.444Z,1009.28
2017-12-21T07:51:21.436Z,1009.25
2017-12-21T07:52:21.429Z,1009.28
2017-12-21T07:53:21.474Z,1009.25
2017-12-21T07:54:21.417Z,1009.26
2017-12-21T07:55:21.409Z,1009.24
2017-12-21T07:56:21.405Z,1009.2
2017-12-21T07:57:21.397Z,1009.21
2017-12-21T07:58:21.389Z,1009.22
2017-12-21T07:59:21.383Z,1009.2
2017-12-21T08:00:21.425Z,1009.17
2017-12-21T08:01:21.392Z,1009.21
2017-12-21T08:02:21.363Z,1009.17
2017-12-21T08:03:21.356Z,1009.17
2017-12-21T08:04:21.349Z,1009.12
2017-12-21T08:05:21.342Z,1009.14
2017-12-21T08:06:21.336Z,1009.13
2017-12-21T08:07:21.331Z,1009.1
2017-12-21T08:08:21.323Z,1009.1
2017-12-21T08:09:21.316Z,1009.12
2017-12-21T08:10:21.308Z,1009.09
2017-12-21T08:11:21.303Z,1009.13
2017-12-21T08:12:21.295Z,1009.07
2017-12-21T08:13:21.294Z,1009.05
2017-12-21T08:14:21.282Z,1009.07
2017-12-21T08:15:21.276Z,1009.06
2017-12-21T08:16:21.270Z,1009.09
2017-12-21T08:17:21.267Z,1009.09
2017-12-21T08:18:21.256Z,1009.05
2017-12-21T08:19:21.258Z,1009.06
2017-12-21T08:20:21.244Z,1009.09
2017-12-21T08:21:21.240Z,1009.09
2017-12-21T08:22:21.242Z,1009.08
2017-12-21T08:23:21.224Z,1009.11
2017-12-21T08:24:21.219Z,1009.09
2017-12-21T08:25:21.211Z,1009.11
2017-12-21T08:26:21.212Z,1009.12
2017-12-21T08:27:21.199Z,1009.12
2017-12-21T08:28:21.193Z,1009.16
2017-12-21T08:29:21.185Z,1009.15
2017-12-21T08:30:21.186Z,1009.19
2017-12-21T08:31:21.173Z,1009.17
2017-12-21T08:32:21.167Z,1009.15
2017-12-21T08:33:21.163Z,1009.18
2017-12-21T08:34:21.154Z,1009.19
2017-12-21T08:35:21.148Z,1009.18
2017-12-21T08:36:21.146Z,1009.19
2017-12-21T08:37:21.141Z,1009.25
2017-12-21T08:38:21.143Z,1009.24
2017-12-21T08:39:21.122Z,1009.25
2017-12-21T08:40:21.115Z,1009.23
2017-12-21T08:41:21.109Z,1009.23
2017-12-21T08:42:21.102Z,1009.18
2017-12-21T08:43:21.096Z,1009.19
2017-12-21T08:44:21.093Z,1009.16
2017-12-21T08:45:21.095Z,1009.2
2017-12-21T08:46:21.082Z,1009.19
2017-12-21T08:47:21.069Z,1009.21
2017-12-21T08:48:21.074Z,1009.24
2017-12-21T08:49:21.058Z,1009.28
2017-12-21T08:50:21.052Z,1009.29
2017-12-21T08:51:21.045Z,1009.34
2017-12-21T08:52:21.039Z,1009.37
2017-12-21T08:53:21.032Z,1009.39
2017-12-21T08:54:21.025Z,1009.38
2017-12-21T08:55:21.025Z,1009.38
2017-12-21T08:56:21.018Z,1009.44
2017-12-21T08:57:21.017Z,1009.47
2017-12-21T08:58:21.002Z,1009.52
2017-12-21T08:59:20.998Z,1009.49
2017-12-21T09:00:20.991Z,1009.53
2017-12-21T09:01:20.983Z,1009.51
2017-12-21T09:02:20.975Z,1009.48
2017-12-21T09:03:20.970Z,1009.52
2017-12-21T09:04:20.966Z,1009.51
2017-12-21T09:05:20.963Z,1009.57
2017-12-21T09:06:20.954Z,1009.55
2017-12-21T09:07:20.946Z,1009.63
2017-12-21T09:08:20.940Z,1009.57
2017-12-21T09:09:20.937Z,1009.64
2017-12-21T09:10:20.927Z,1009.61
2017-12-21T09:11:20.921Z,1009.62
2017-12-21T09:12:20.914Z,1009.65
2017-12-21T09:13:20.908Z,1009.65
2017-12-21T09:14:20.912Z,1009.66
2017-12-21T09:15:20.896Z,1009.68
2017-12-21T09:16:20.892Z,1009.63
2017-12-21T09:17:20.884Z,1009.63
2017-12-21T09:18:20.878Z,1009.63
2017-12-21T09:19:20.871Z,1009.62
2017-12-21T09:20:20.868Z,1009.65
2017-12-21T09:21:20.860Z,1009.61
2017-12-21T09:22:20.856Z,1009.63
2017-12-21T09:23:20.850Z,1009.58
2017-12-21T09:24:20.840Z,1009.58
2017-12-21T09:25:20.834Z,1009.6
2017-12-21T09:26:20.828Z,1009.59
2017-12-21T09:27:20.822Z,1009.6
2017-12-21T09:28:20.816Z,1009.63
2017-12-21T09:29:20.812Z,1009.64
2017-12-21T09:30:20.804Z,1009.61
2017-12-21T09:31:20.796Z,1009.62
2017-12-21T09:32:20.791Z,1009.59
2017-12-21T09:33:20.791Z,1009.59
2017-12-21T09:34:20.777Z,1009.59
2017-12-21T09:35:20.771Z,1009.59
2017-12-21T09:36:20.765Z,1009.61
2017-12-21T09:37:20.760Z,1009.61
2017-12-21T09:38:20.761Z,1009.6
2017-12-21T09:39:20.748Z,1009.59
2017-12-21T09:40:20.741Z,1009.59
2017-12-21T09:41:20.740Z,1009.56
2017-12-21T09:42:20.745Z,1009.54
2017-12-21T09:43:20.724Z,1009.46
2017-12-21T09:44:20.717Z,1009.51
2017-12-21T09:45:20.710Z,1009.47
2017-12-21T09:46:20.706Z,1009.49
2017-12-21T09:47:20.700Z,1009.48
2017-12-21T09:48:20.694Z,1009.48
2017-12-21T09:49:20.687Z,1009.5
2017-12-21T09:50:20.686Z,1009.49
2017-12-21T09:51:20.678Z,1009.48
2017-12-21T09:52:20.692Z,1009.49
2017-12-21T09:53:20.666Z,1009.5
2017-12-21T09:54:20.663Z,1009.54
2017-12-21T09:55:20.653Z,1009.48
2017-12-21T09:56:20.647Z,1009.47
2017-12-21T09:57:20.643Z,1009.47
2017-12-21T09:58:20.638Z,1009.43
2017-12-21T09:59:20.632Z,1009.46
2017-12-21T10:00:20.626Z,1009.37
2017-12-21T10:01:20.626Z,1009.38
2017-12-21T10:02:20.615Z,1009.35
2017-12-21T10:03:20.613Z,1009.36
2017-12-21T10:04:20.605Z,1009.33
2017-12-21T10:05:20.601Z,1009.39
2017-12-21T10:06:20.602Z,1009.35
2017-12-21T10:07:20.588Z,1009.34
2017-12-21T10:08:20.783Z,1009.36
2017-12-21T10:09:20.579Z,1009.37
2017-12-21T10:10:20.576Z,1009.34
2017-12-21T10:11:20.567Z,1009.36
2017-12-21T10:12:20.562Z,1009.33
2017-12-21T10:13:20.557Z,1009.32
2017-12-21T10:14:20.554Z,1009.32
2017-12-21T10:15:20.547Z,1009.29
2017-12-21T10:16:20.548Z,1009.29
2017-12-21T10:17:20.538Z,1009.28
2017-12-21T10:18:20.534Z,1009.27
2017-12-21T10:19:20.528Z,1009.26
2017-12-21T10:20:20.527Z,1009.26
2017-12-21T10:21:20.519Z,1009.25
2017-12-21T10:22:20.514Z,1009.27
2017-12-21T10:52:40.016Z,1009.08
2017-12-21T10:53:39.753Z,1009.09
2017-12-21T10:54:39.740Z,1009.11
2017-12-21T10:55:39.730Z,1009.1
2017-12-21T10:56:39.718Z,1009.14
2017-12-21T10:57:39.710Z,1009.1
2017-12-21T10:58:39.701Z,1009.11
2017-12-21T10:59:39.693Z,1009.09
2017-12-21T11:00:39.684Z,1009.05
2017-12-21T11:01:39.680Z,1009.05
2017-12-21T11:02:39.668Z,1009.07
2017-12-21T11:03:39.706Z,1009.07
2017-12-21T11:04:39.655Z,1009.05
2017-12-21T11:05:39.651Z,1009.05
2017-12-21T11:06:39.640Z,1009.05
2017-12-21T11:07:39.634Z,1009.05
2017-12-21T11:08:39.629Z,1009.04
2017-12-21T11:09:39.621Z,1009.07
2017-12-21T11:10:39.614Z,1009.04
2017-12-21T11:11:39.637Z,1009.02
2017-12-21T11:12:39.604Z,1009.03
2017-12-21T11:13:39.597Z,1009.02
2017-12-21T11:14:39.591Z,1008.99
2017-12-21T11:15:39.586Z,1009.01
2017-12-21T11:16:39.585Z,1008.94
2017-12-21T11:17:39.575Z,1008.93
2017-12-21T11:18:39.569Z,1008.87
2017-12-21T11:19:39.566Z,1008.83
2017-12-21T11:20:39.570Z,1008.86
2017-12-21T11:21:39.560Z,1008.82
2017-12-21T11:22:41.699Z,1008.83
2017-12-21T11:23:39.542Z,1008.86
2017-12-21T11:24:39.537Z,1008.83
2017-12-21T11:25:39.531Z,1008.84
2017-12-21T11:26:39.527Z,1008.83
2017-12-21T11:27:39.523Z,1008.79
2017-12-21T11:28:39.517Z,1008.82
2017-12-21T11:29:39.513Z,1008.81
2017-12-21T11:30:39.516Z,1008.76
2017-12-21T11:31:39.505Z,1008.79
2017-12-21T11:32:39.505Z,1008.77
2017-12-21T11:33:39.491Z,1008.75
2017-12-21T11:34:39.487Z,1008.74
2017-12-21T11:35:39.482Z,1008.73
2017-12-21T11:36:39.477Z,1008.75
2017-12-21T11:37:39.473Z,1008.73
2017-12-21T11:38:39.471Z,1008.71
2017-12-21T11:39:39.462Z,1008.76
2017-12-21T11:40:39.459Z,1008.71
2017-12-21T11:41:39.456Z,1008.74
2017-12-21T11:42:39.450Z,1008.72
2017-12-21T11:43:39.443Z,1008.72
2017-12-21T11:44:39.438Z,1008.74
2017-12-21T11:45:39.434Z,1008.67
2017-12-21T11:46:39.429Z,1008.66
2017-12-21T11:47:39.423Z,1008.64
2017-12-21T11:48:39.419Z,1008.63
2017-12-21T11:49:39.415Z,1008.6
2017-12-21T11:50:39.409Z,1008.57
2017-12-21T11:51:39.414Z,1008.56
2017-12-21T11:52:39.399Z,1008.6
2017-12-21T11:53:39.396Z,1008.62
2017-12-21T11:54:39.399Z,1008.61
2017-12-21T11:55:39.386Z,1008.56
2017-12-21T11:56:39.378Z,1008.56
2017-12-21T11:57:39.373Z,1008.59
2017-12-21T11:58:39.379Z,1008.57
2017-12-21T11:59:39.370Z,1008.59
2017-12-21T12:00:39.373Z,1008.52
2017-12-21T12:01:39.363Z,1008.51
2017-12-21T12:02:39.348Z,1008.53
2017-12-21T12:03:39.343Z,1008.51
2017-12-21T12:04:39.337Z,1008.53
2017-12-21T12:05:39.333Z,1008.49
2017-12-21T12:06:39.327Z,1008.55
2017-12-21T12:07:39.332Z,1008.51
2017-12-21T12:08:39.318Z,1008.52
2017-12-21T12:09:39.315Z,1008.49
2017-12-21T12:10:39.316Z,1008.48
2017-12-21T12:11:39.303Z,1008.43
2017-12-21T12:12:39.296Z,1008.41
2017-12-21T12:13:39.294Z,1008.41
2017-12-21T12:14:39.287Z,1008.37
2017-12-21T12:15:39.282Z,1008.36
2017-12-21T12:16:39.285Z,1008.33
2017-12-21T12:17:39.282Z,1008.29
2017-12-21T12:18:39.272Z,1008.28
2017-12-21T12:19:39.271Z,1008.3
2017-12-21T12:20:39.269Z,1008.26
2017-12-21T12:21:39.253Z,1008.28
2017-12-21T12:22:39.259Z,1008.28
2017-12-21T12:23:39.241Z,1008.24
2017-12-21T12:24:39.242Z,1008.29
2017-12-21T12:25:39.234Z,1008.28
2017-12-21T12:26:39.230Z,1008.23
2017-12-21T12:27:39.227Z,1008.22
2017-12-21T12:28:39.221Z,1008.22
2017-12-21T12:29:39.218Z,1008.24
2017-12-21T12:30:39.220Z,1008.22
2017-12-21T12:31:39.218Z,1008.24
2017-12-21T12:32:39.203Z,1008.25
2017-12-21T12:33:39.204Z,1008.22
2017-12-21T12:34:39.194Z,1008.23
2017-12-21T12:35:39.193Z,1008.21
2017-12-21T12:36:39.187Z,1008.2
2017-12-21T12:37:39.182Z,1008.2